Time;durP1;ratioP1;P1;durP2;ratioP2;P2;SDS_P1;SDS_P2;PMS_P1;PMS_P2;Temp;Humidity;BMP_temperature;BMP_pressure;BME280_temperature;BME280_humidity;BME280_pressure;Samples;Min_cycle;Max_cycle;Signal;HPM_P1;HPM_P2
2022/01/24 00:00:24;;;;;;;51.67;18.77;;;;;;;0.69;100.00;101981.94;5075041;28;20062;-53
2022/01/24 00:02:52;;;;;;;59.10;20.27;;;;;;;0.71;100.00;101976.72;5074828;28;20056;-53
2022/01/24 00:05:23;;;;;;;54.95;19.65;;;;;;;0.69;100.00;101968.88;5074099;28;20147;-53
2022/01/24 00:07:52;;;;;;;57.30;20.42;;;;;;;0.64;100.00;101970.59;5074559;28;20067;-53
2022/01/24 00:10:24;;;;;;;64.78;20.48;;;;;;;0.66;100.00;101970.63;5074825;28;20064;-53
2022/01/24 00:13:07;;;;;;;59.25;21.60;;;;;;;0.64;100.00;101972.31;5075228;28;20056;-53
2022/01/24 00:15:52;;;;;;;61.33;22.83;;;;;;;0.61;100.00;101977.56;5073892;28;20072;-53
2022/01/24 00:18:31;;;;;;;72.95;21.85;;;;;;;0.61;100.00;101973.22;5075378;28;20068;-53
2022/01/24 00:26:47;;;;;;;63.17;20.35;;;;;;;0.50;100.00;101964.47;5074354;28;20059;-53
2022/01/24 00:29:16;;;;;;;63.53;22.05;;;;;;;0.50;100.00;101957.50;5074554;28;20083;-53
2022/01/24 00:31:45;;;;;;;62.33;21.08;;;;;;;0.51;100.00;101969.69;5074263;28;20056;-53
2022/01/24 00:34:13;;;;;;;68.60;22.75;;;;;;;0.64;100.00;101973.22;5074293;28;20064;-53
2022/01/24 00:36:42;;;;;;;68.63;21.23;;;;;;;0.58;100.00;101973.19;5074081;28;20052;-53
2022/01/24 00:39:12;;;;;;;63.63;22.27;;;;;;;0.53;100.00;101974.94;5074291;28;20056;-53
2022/01/24 00:41:47;;;;;;;65.53;22.23;;;;;;;0.51;100.00;101963.59;5074236;28;20064;-53
2022/01/24 00:44:40;;;;;;;73.95;24.52;;;;;;;0.52;100.00;101967.94;5073610;28;20056;-53
2022/01/24 00:47:14;;;;;;;67.65;22.23;;;;;;;0.53;100.00;101960.13;5073681;28;20052;-53
2022/01/24 00:55:14;;;;;;;64.47;22.13;;;;;;;0.49;100.00;101965.34;5074712;28;20064;-53
2022/01/24 00:57:42;;;;;;;62.30;19.83;;;;;;;0.48;100.00;101955.75;5073967;28;20056;-53
2022/01/24 01:00:11;;;;;;;53.22;18.70;;;;;;;0.54;100.00;101959.25;5075093;28;20393;-53
2022/01/24 01:02:41;;;;;;;56.72;18.85;;;;;;;0.53;100.00;101956.66;5074264;28;20064;-53
2022/01/24 01:05:23;;;;;;;44.50;16.67;;;;;;;0.45;100.00;101953.13;5073467;28;20136;-53
2022/01/24 01:08:01;;;;;;;48.95;18.23;;;;;;;0.49;100.00;101961.00;5073705;28;20092;-53
2022/01/24 01:18:47;;;;;;;49.75;19.13;;;;;;;0.46;100.00;101947.06;5073358;28;20099;-53
2022/01/24 01:21:16;;;;;;;45.70;17.60;;;;;;;0.44;100.00;101943.53;5073847;28;20092;-53
2022/01/24 01:23:50;;;;;;;49.65;19.13;;;;;;;0.42;100.00;101955.72;5074043;28;20057;-53
2022/01/24 01:26:25;;;;;;;52.20;19.40;;;;;;;0.43;100.00;101949.66;5074681;28;20052;-53
2022/01/24 01:28:58;;;;;;;50.70;17.20;;;;;;;0.36;100.00;101952.25;5073395;28;20052;-53
2022/01/24 01:31:37;;;;;;;51.20;16.27;;;;;;;0.42;100.00;101955.72;5073227;28;20053;-53
2022/01/24 01:34:17;;;;;;;46.67;17.60;;;;;;;0.35;100.00;101950.50;5073205;28;20090;-53
2022/01/24 01:37:11;;;;;;;55.88;18.13;;;;;;;0.32;100.00;101950.50;5073717;28;20052;-53
2022/01/24 01:53:50;;;;;;;58.35;16.77;;;;;;;0.33;100.00;101951.34;5076574;28;20068;-53
2022/01/24 01:56:19;;;;;;;52.92;18.02;;;;;;;0.29;100.00;101940.03;5077400;28;20057;-53
2022/01/24 01:58:48;;;;;;;49.88;17.42;;;;;;;0.31;100.00;101938.31;5077041;28;20067;-53
2022/01/24 02:01:17;;;;;;;56.17;17.23;;;;;;;0.33;100.00;101935.69;5076717;28;20060;-53
2022/01/24 02:03:46;;;;;;;52.17;18.48;;;;;;;0.30;100.00;101941.78;5076622;28;20538;-53
2022/01/24 02:06:14;;;;;;;54.63;17.17;;;;;;;0.34;100.00;101948.75;5076293;28;20060;-53
2022/01/24 02:08:43;;;;;;;50.33;18.35;;;;;;;0.31;100.00;101940.91;5076622;28;20061;-53
2022/01/24 02:11:15;;;;;;;56.05;18.73;;;;;;;0.30;100.00;101947.03;5077595;28;20058;-53
2022/01/24 02:13:45;;;;;;;49.55;17.23;;;;;;;0.31;100.00;101947.88;5076241;28;20056;-53
2022/01/24 02:16:24;;;;;;;48.33;16.67;;;;;;;0.34;100.00;101940.94;5077225;28;20056;-53
2022/01/24 02:19:05;;;;;;;57.08;18.00;;;;;;;0.35;100.00;101942.69;5076240;28;20062;-53
2022/01/24 02:21:43;;;;;;;46.20;18.17;;;;;;;0.35;100.00;101945.28;5076190;28;20385;-53
2022/01/24 02:24:13;;;;;;;54.00;19.48;;;;;;;0.38;100.00;101943.56;5076856;28;20378;-53
2022/01/24 02:26:42;;;;;;;48.95;18.38;;;;;;;0.36;100.00;101944.41;5076498;28;20377;-53
2022/01/24 02:29:17;;;;;;;44.30;16.67;;;;;;;0.28;100.00;101940.03;5076101;28;20063;-53
2022/01/24 02:31:48;;;;;;;52.28;19.63;;;;;;;0.25;100.00;101926.97;5076861;28;20065;-53
2022/01/24 02:34:27;;;;;;;50.97;18.42;;;;;;;0.28;100.00;101937.44;5076971;28;20058;-53
2022/01/24 02:36:59;;;;;;;49.95;16.50;;;;;;;0.30;100.00;101930.47;5076075;28;20052;-53
2022/01/24 02:39:50;;;;;;;46.13;16.58;;;;;;;0.34;100.00;101933.09;5076114;28;20121;-53
2022/01/24 02:51:01;;;;;;;44.13;16.25;;;;;;;0.36;100.00;101938.31;5075544;28;20053;-53
2022/01/24 02:53:33;;;;;;;45.28;16.33;;;;;;;0.42;100.00;101933.13;5076298;28;20071;-53
2022/01/24 02:56:01;;;;;;;33.00;13.07;;;;;;;0.44;100.00;101927.88;5075736;28;20068;-53
2022/01/24 02:58:29;;;;;;;36.08;14.65;;;;;;;0.48;100.00;101940.09;5075356;28;20067;-53
2022/01/24 03:00:59;;;;;;;42.95;16.70;;;;;;;0.40;100.00;101936.59;5075099;28;20053;-53
2022/01/24 03:03:28;;;;;;;41.65;16.27;;;;;;;0.43;100.00;101941.81;5075470;28;20056;-53
2022/01/24 03:05:56;;;;;;;36.45;14.30;;;;;;;0.42;100.00;101934.84;5076635;28;20059;-53
2022/01/24 03:08:24;;;;;;;45.80;16.42;;;;;;;0.47;100.00;101938.34;5075264;28;20057;-53
2022/01/24 03:10:54;;;;;;;34.95;15.20;;;;;;;0.44;100.00;101938.31;5075339;28;20053;-53
2022/01/24 03:13:32;;;;;;;43.72;15.82;;;;;;;0.38;100.00;101933.09;5075299;28;20523;-53
2022/01/24 03:16:03;;;;;;;34.42;14.63;;;;;;;0.34;100.00;101933.09;5076460;28;20092;-53
2022/01/24 03:18:32;;;;;;;38.22;16.42;;;;;;;0.36;100.00;101928.75;5074948;28;20056;-53
2022/01/24 03:21:00;;;;;;;35.58;14.85;;;;;;;0.36;100.00;101931.34;5076265;28;20052;-53
2022/01/24 03:23:28;;;;;;;34.67;15.00;;;;;;;0.33;100.00;101926.13;5075971;28;20053;-53
2022/01/24 03:25:58;;;;;;;36.67;16.55;;;;;;;0.30;100.00;101930.47;5074773;28;20534;-53
2022/01/24 03:28:27;;;;;;;35.15;14.45;;;;;;;0.35;100.00;101927.03;5074931;28;20056;-53
2022/01/24 03:30:55;;;;;;;28.08;14.27;;;;;;;0.38;100.00;101922.66;5075530;28;20060;-53
2022/01/24 03:33:23;;;;;;;33.13;15.55;;;;;;;0.38;100.00;101917.44;5074920;28;20064;-53
2022/01/24 03:35:52;;;;;;;37.58;16.67;;;;;;;0.40;100.00;101918.31;5074601;28;20055;-53
2022/01/24 03:38:20;;;;;;;31.55;14.05;;;;;;;0.40;100.00;101913.09;5074716;28;20052;-53
2022/01/24 03:40:48;;;;;;;35.55;16.20;;;;;;;0.44;100.00;101907.00;5075072;28;20056;-53
2022/01/24 03:43:18;;;;;;;34.33;14.82;;;;;;;0.49;100.00;101900.06;5074666;28;20053;-53
2022/01/24 03:45:48;;;;;;;29.25;15.35;;;;;;;0.46;100.00;101898.31;5074405;28;20052;-53
2022/01/24 03:48:38;;;;;;;31.10;14.85;;;;;;;0.55;100.00;101900.06;5074518;28;20048;-53
2022/01/24 03:51:06;;;;;;;29.15;15.13;;;;;;;0.52;100.00;101898.34;5074875;28;20052;-53
2022/01/24 03:53:35;;;;;;;37.97;15.25;;;;;;;0.49;100.00;101906.16;5075174;28;20056;-53
2022/01/24 03:56:03;;;;;;;30.23;14.40;;;;;;;0.54;100.00;101893.13;5074407;28;20059;-53
2022/01/24 03:58:34;;;;;;;28.45;14.38;;;;;;;0.53;100.00;101893.97;5074843;28;20063;-53
2022/01/24 04:01:04;;;;;;;30.83;15.30;;;;;;;0.52;100.00;101892.22;5075594;28;20068;-53
2022/01/24 04:03:33;;;;;;;27.58;13.15;;;;;;;0.56;100.00;101896.59;5074132;28;20060;-53
2022/01/24 04:06:01;;;;;;;36.63;14.68;;;;;;;0.56;100.00;101896.59;5074397;28;20388;-53
2022/01/24 04:08:30;;;;;;;36.03;15.60;;;;;;;0.61;100.00;101884.41;5075146;28;20066;-53
2022/01/24 04:10:59;;;;;;;31.33;15.10;;;;;;;0.62;100.00;101880.91;5074158;28;20531;-53
2022/01/24 04:13:31;;;;;;;32.92;15.57;;;;;;;0.63;100.00;101887.91;5074235;28;20060;-53
2022/01/24 04:16:24;;;;;;;34.70;14.90;;;;;;;0.63;100.00;101887.03;5073946;28;20068;-53
2022/01/24 04:18:59;;;;;;;35.67;13.73;;;;;;;0.69;100.00;101887.91;5075434;28;20060;-53
2022/01/24 04:21:28;;;;;;;33.10;14.27;;;;;;;0.80;100.00;101876.59;5075346;28;20400;-53
2022/01/24 04:24:03;;;;;;;35.78;15.32;;;;;;;0.77;100.00;101879.19;5074844;28;20056;-53
2022/01/24 04:26:31;;;;;;;33.80;15.20;;;;;;;0.77;100.00;101881.81;5074229;28;20056;-53
2022/01/24 04:29:00;;;;;;;35.10;15.55;;;;;;;0.77;100.00;101881.81;5074141;28;20056;-53
2022/01/24 04:31:31;;;;;;;37.40;14.27;;;;;;;0.82;100.00;101882.69;5074367;28;20083;-53
2022/01/24 04:33:59;;;;;;;41.13;16.27;;;;;;;0.81;100.00;101880.94;5074093;28;20056;-53
2022/01/24 04:36:28;;;;;;;38.67;16.88;;;;;;;0.84;100.00;101875.72;5074074;28;20505;-53
2022/01/24 04:38:57;;;;;;;28.17;14.57;;;;;;;0.84;100.00;101876.59;5074844;28;20076;-53
2022/01/24 04:41:29;;;;;;;29.63;15.30;;;;;;;0.98;100.00;101878.34;5074162;28;20068;-53
2022/01/24 04:44:06;;;;;;;40.85;16.63;;;;;;;1.01;100.00;101875.69;5074556;28;20053;-53
2022/01/24 04:46:55;;;;;;;34.97;16.13;;;;;;;0.97;100.00;101877.44;5074471;28;20091;-53
2022/01/24 04:52:19;;;;;;;36.58;15.98;;;;;;;0.98;100.00;101878.34;5075029;28;20059;-53
2022/01/24 04:54:48;;;;;;;39.95;15.70;;;;;;;0.96;100.00;101880.06;5073769;28;20063;-53
2022/01/24 04:57:18;;;;;;;41.67;17.48;;;;;;;0.96;100.00;101882.66;5074334;28;20165;-53
2022/01/24 04:59:48;;;;;;;36.80;14.73;;;;;;;0.91;100.00;101877.47;5074714;28;20496;-53
2022/01/24 05:02:20;;;;;;;34.38;14.48;;;;;;;0.89;100.00;101874.84;5074049;28;20075;-53
2022/01/24 05:04:48;;;;;;;;;;;;;;;0.92;100.00;101879.19;5075403;28;20056;-53
2022/01/24 05:07:16;;;;;;;38.03;15.70;;;;;;;0.83;100.00;101880.06;5073831;28;19931;-53
2022/01/24 05:09:51;;;;;;;37.58;16.27;;;;;;;0.83;100.00;101879.22;5073952;28;20057;-53
2022/01/24 05:12:28;;;;;;;41.17;15.70;;;;;;;0.74;100.00;101870.50;5073382;28;20057;-53
2022/01/24 05:23:30;;;;;;;37.65;16.10;;;;;;;0.35;100.00;101886.97;5076407;28;20081;-54
2022/01/24 05:26:00;;;;;;;38.47;16.05;;;;;;;0.23;100.00;101881.72;5077629;28;20064;-54
2022/01/24 05:28:29;;;;;;;41.10;15.55;;;;;;;0.11;100.00;101890.41;5077262;28;20063;-54
2022/01/24 05:30:58;;;;;;;39.08;17.02;;;;;;;-0.02;100.00;101879.94;5077169;28;20052;-54
2022/01/24 05:33:29;;;;;;;40.42;16.33;;;;;;;-0.15;100.00;101891.19;5078277;28;20068;-54
2022/01/24 05:35:57;;;;;;;46.63;17.70;;;;;;;-0.21;100.00;101892.00;5076879;28;20062;-54
2022/01/24 05:38:25;;;;;;;38.80;16.80;;;;;;;-0.25;100.00;101886.78;5077186;28;20451;-54
2022/01/24 05:40:54;;;;;;;39.55;16.23;;;;;;;-0.21;100.00;101888.53;5077964;28;20060;-54
2022/01/24 05:43:22;;;;;;;40.42;16.40;;;;;;;-0.30;100.00;101897.19;5077931;28;20053;-54
2022/01/24 05:45:51;;;;;;;47.97;18.83;;;;;;;-0.40;100.00;101888.44;5077026;28;20056;-54
2022/01/24 05:48:19;;;;;;;47.17;17.38;;;;;;;-0.48;100.00;101892.72;5077688;28;20052;-54
2022/01/24 05:50:49;;;;;;;49.33;17.35;;;;;;;-0.59;100.00;101890.09;5077213;28;20122;-54
2022/01/24 05:53:17;;;;;;;47.63;18.30;;;;;;;-0.57;100.00;101892.69;5077717;28;20052;-54
2022/01/24 05:55:45;;;;;;;52.25;18.42;;;;;;;-0.63;100.00;101885.69;5076689;28;20052;-54
2022/01/24 05:58:14;;;;;;;50.13;18.45;;;;;;;-0.72;100.00;101889.97;5076819;28;20056;-54
2022/01/24 06:00:42;;;;;;;55.17;18.20;;;;;;;-0.76;100.00;101899.50;5076455;28;20063;-54
2022/01/24 06:03:10;;;;;;;45.08;17.25;;;;;;;-0.77;100.00;101896.03;5076977;28;20389;-54
2022/01/24 06:05:39;;;;;;;56.15;19.20;;;;;;;-0.73;100.00;101896.06;5077123;28;20102;-54
2022/01/24 06:08:08;;;;;;;56.47;18.80;;;;;;;-0.76;100.00;101886.47;5076635;28;20067;-54
2022/01/24 06:10:38;;;;;;;45.90;17.98;;;;;;;-0.87;100.00;101891.63;5076761;28;20067;-54
2022/01/24 06:13:07;;;;;;;45.78;17.83;;;;;;;-0.81;100.00;101899.50;5077274;28;20488;-54
2022/01/24 06:15:35;;;;;;;41.30;16.48;;;;;;;-0.89;100.00;101898.56;5076897;28;20063;-54
2022/01/24 06:18:03;;;;;;;46.13;18.70;;;;;;;-0.96;100.00;101899.34;5076402;28;20057;-54
2022/01/24 06:20:31;;;;;;;43.38;16.27;;;;;;;-1.04;100.00;101898.41;5076370;28;20061;-54
2022/01/24 06:23:00;;;;;;;59.67;19.17;;;;;;;-0.95;100.00;101901.13;5076582;28;20052;-54
2022/01/24 06:25:29;;;;;;;41.95;16.75;;;;;;;-1.08;100.00;101899.25;5077446;28;20432;-54
2022/01/24 06:27:57;;;;;;;46.90;19.02;;;;;;;-1.18;100.00;101909.63;5076238;28;20059;-54
2022/01/24 06:30:26;;;;;;;37.92;16.02;;;;;;;-1.25;100.00;101907.81;5076051;28;20060;-54
2022/01/24 06:32:54;;;;;;;39.28;16.10;;;;;;;-1.33;100.00;101909.44;5076202;28;20056;-54
2022/01/24 06:35:23;;;;;;;42.28;17.13;;;;;;;-1.43;100.00;101908.53;5074711;28;20071;-54
2022/01/24 06:37:51;;;;;;;37.28;16.23;;;;;;;-1.50;100.00;101911.91;5076166;28;20059;-54
2022/01/24 06:40:19;;;;;;;41.97;16.00;;;;;;;-1.57;100.00;101900.53;5076014;28;20634;-54
2022/01/24 06:42:49;;;;;;;34.17;14.88;;;;;;;-1.57;100.00;101910.09;5076095;28;20496;-54
2022/01/24 06:45:17;;;;;;;36.05;14.20;;;;;;;-1.64;100.00;101914.38;5076973;28;20060;-54
2022/01/24 06:47:46;;;;;;;37.03;14.73;;;;;;;-1.71;100.00;101912.56;5076152;28;20064;-54
2022/01/24 06:50:14;;;;;;;38.88;14.75;;;;;;;-1.74;100.00;101917.72;5075756;28;20056;-54
2022/01/24 06:52:42;;;;;;;40.40;15.32;;;;;;;-1.77;100.00;101918.53;5075544;28;20063;-54
2022/01/24 06:55:11;;;;;;;42.83;16.83;;;;;;;-1.82;100.00;101920.22;5075389;28;20060;-54
2022/01/24 06:57:39;;;;;;;42.10;16.20;;;;;;;-1.87;100.00;101919.28;5075648;28;20369;-54
2022/01/24 07:00:10;;;;;;;34.65;15.25;;;;;;;-2.02;100.00;101912.19;5075459;28;20056;-54
2022/01/24 07:02:38;;;;;;;38.15;15.57;;;;;;;-2.07;100.00;101912.16;5075326;28;20063;-54
2022/01/24 07:05:07;;;;;;;37.10;15.88;;;;;;;-2.02;100.00;101919.13;5075216;28;20424;-54
2022/01/24 07:07:36;;;;;;;35.42;14.82;;;;;;;-2.09;100.00;101916.44;5075386;28;20424;-54
2022/01/24 07:10:04;;;;;;;38.95;16.52;;;;;;;-2.14;100.00;101914.63;5075317;28;20052;-54
2022/01/24 07:12:53;;;;;;;40.72;14.23;;;;;;;-2.17;100.00;101915.50;5075612;28;20114;-54
2022/01/24 07:15:31;;;;;;;42.20;15.15;;;;;;;-2.20;100.00;101922.34;5075548;28;20515;-54
2022/01/24 07:18:57;;;;;;;36.60;16.17;;;;;;;-2.19;100.00;101931.91;5074886;28;20064;-54
2022/01/24 07:21:06;;;;;;;40.70;14.88;;;;;;;-2.20;100.00;101927.53;5074962;28;20056;-54
2022/01/24 07:23:34;;;;;;;35.53;14.68;;;;;;;-2.21;100.00;101938.81;5075428;28;20415;-54
2022/01/24 07:26:03;;;;;;;44.05;14.93;;;;;;;-2.21;100.00;101933.63;5074836;28;20060;-54
2022/01/24 07:28:31;;;;;;;41.10;16.02;;;;;;;-2.26;100.00;101934.41;5074991;28;20056;-54
2022/01/24 07:31:01;;;;;;;35.03;16.50;;;;;;;-2.24;100.00;101937.03;5075309;28;20403;-54
2022/01/24 07:33:29;;;;;;;46.75;16.05;;;;;;;-2.26;100.00;101933.56;5075141;28;20057;-54
2022/01/24 07:35:58;;;;;;;38.65;16.50;;;;;;;-2.27;100.00;101927.50;5075339;28;20060;-54
2022/01/24 07:38:26;;;;;;;39.22;16.77;;;;;;;-2.31;100.00;101945.63;5075141;28;20403;-54
2022/01/24 07:40:55;;;;;;;40.38;15.95;;;;;;;-2.34;100.00;101935.16;5074910;28;20052;-54
2022/01/24 07:43:24;;;;;;;44.80;16.90;;;;;;;-2.38;100.00;101939.44;5075011;28;20059;-54
2022/01/24 07:45:52;;;;;;;36.13;15.70;;;;;;;-2.42;100.00;101937.69;5075093;28;20138;-54
2022/01/24 07:48:22;;;;;;;36.45;16.38;;;;;;;-2.49;100.00;101941.91;5075018;28;20121;-54
2022/01/24 07:50:52;;;;;;;36.38;15.68;;;;;;;-2.53;100.00;101952.22;5074904;28;20054;-54
2022/01/24 07:53:22;;;;;;;44.65;16.15;;;;;;;-2.57;100.00;101947.81;5074199;28;20049;-54
2022/01/24 07:56:11;;;;;;;41.55;15.98;;;;;;;-2.58;100.00;101951.28;5074554;28;20052;-54
2022/01/24 07:58:41;;;;;;;41.72;17.50;;;;;;;-2.56;100.00;101949.56;5074891;28;20060;-54
2022/01/24 08:01:10;;;;;;;39.88;16.30;;;;;;;-2.45;100.00;101955.81;5074858;28;20052;-54
2022/01/24 08:03:40;;;;;;;38.63;15.85;;;;;;;-2.38;100.00;101960.25;5075273;28;20092;-54
2022/01/24 08:06:08;;;;;;;40.90;16.10;;;;;;;-2.33;100.00;101961.19;5073992;28;20060;-54
2022/01/24 08:08:36;;;;;;;45.05;16.58;;;;;;;-2.27;100.00;101963.88;5074630;28;20523;-54
2022/01/24 08:11:05;;;;;;;38.83;16.27;;;;;;;-2.21;100.00;101964.81;5074199;28;20052;-54
2022/01/24 08:13:33;;;;;;;45.15;18.27;;;;;;;-2.13;100.00;101965.81;5074857;28;20057;-54
2022/01/24 08:16:01;;;;;;;46.70;18.27;;;;;;;-2.02;100.00;101971.13;5073662;28;20071;-54
2022/01/24 08:18:29;;;;;;;39.45;16.33;;;;;;;-1.94;100.00;101972.09;5073835;28;20106;-54
2022/01/24 08:20:59;;;;;;;43.63;17.60;;;;;;;-1.82;100.00;101981.78;5074164;28;20052;-54
2022/01/24 08:23:27;;;;;;;37.40;15.93;;;;;;;-1.71;100.00;101980.22;5074065;28;20056;-54
2022/01/24 08:25:56;;;;;;;46.08;18.60;;;;;;;-1.59;100.00;101975.13;5074481;28;20092;-54
2022/01/24 08:28:24;;;;;;;44.10;16.63;;;;;;;-1.52;100.00;101976.09;5074071;28;20061;-54
2022/01/24 08:30:53;;;;;;;47.13;18.35;;;;;;;-1.37;100.00;101978.84;5074031;28;20419;-54
2022/01/24 08:33:22;;;;;;;50.85;18.67;;;;;;;-1.26;100.00;101986.78;5074551;28;20106;-54
2022/01/24 08:35:52;;;;;;;47.75;18.55;;;;;;;-1.17;100.00;101980.78;5073737;28;20052;-54
2022/01/24 08:38:23;;;;;;;43.58;17.52;;;;;;;-1.02;100.00;101982.69;5073961;28;20057;-54
2022/01/24 08:40:56;;;;;;;49.15;19.27;;;;;;;-0.98;100.00;101977.50;5074322;28;20424;-54
2022/01/24 08:43:38;;;;;;;57.83;19.15;;;;;;;-0.85;100.00;101981.09;5074788;28;20076;-54
2022/01/24 08:46:06;;;;;;;35.25;13.48;;;;;;;-0.69;100.00;101997.75;5074496;28;20132;-54
2022/01/24 08:48:36;;;;;;;52.08;19.80;;;;;;;-0.56;100.00;101990.88;5073906;28;20056;-54
2022/01/24 08:51:04;;;;;;;51.75;20.10;;;;;;;-0.36;100.00;101995.38;5074286;28;20052;-54
2022/01/24 08:53:34;;;;;;;47.63;18.88;;;;;;;-0.11;100.00;102006.84;5074823;28;20087;-54
2022/01/24 08:56:05;;;;;;;46.83;18.90;;;;;;;0.18;100.00;102005.25;5074394;28;20123;-54
2022/01/24 08:58:34;;;;;;;58.70;20.27;;;;;;;0.56;100.00;101998.44;5076059;28;20517;-54
2022/01/24 09:01:02;;;;;;;50.05;21.17;;;;;;;0.96;100.00;102001.16;5079004;28;20063;-54
2022/01/24 09:03:36;;;;;;;49.92;20.95;;;;;;;1.34;100.00;102007.28;5078032;28;20357;-54
2022/01/24 09:06:04;;;;;;;50.78;21.55;;;;;;;1.70;100.00;102003.78;5077567;28;20056;-54
2022/01/24 09:08:35;;;;;;;53.70;21.25;;;;;;;2.05;100.00;102002.78;5078016;28;20068;-54
2022/01/24 09:11:04;;;;;;;56.40;23.90;;;;;;;2.35;100.00;102006.19;5077438;28;20057;-54
2022/01/24 09:13:32;;;;;;;49.33;21.13;;;;;;;2.65;100.00;102005.19;5077540;28;20061;-52
2022/01/24 09:16:01;;;;;;;54.15;23.58;;;;;;;2.76;100.00;102002.53;5077253;28;20470;-52
2022/01/24 09:18:30;;;;;;;49.83;21.80;;;;;;;2.72;100.00;102006.91;5077389;28;20135;-52
2022/01/24 09:20:58;;;;;;;41.15;19.88;;;;;;;2.92;100.00;101998.91;5077420;28;20508;-52
2022/01/24 09:23:27;;;;;;;44.47;19.05;;;;;;;2.98;100.00;101998.88;5077593;28;20076;-52
2022/01/24 09:25:56;;;;;;;43.47;18.35;;;;;;;3.13;100.00;101999.66;5077393;28;20431;-52
2022/01/24 09:28:24;;;;;;;38.40;17.63;;;;;;;3.01;100.00;102000.63;5077288;28;20071;-52
2022/01/24 09:30:53;;;;;;;38.42;18.02;;;;;;;2.89;100.00;102009.44;5077123;28;20076;-52
2022/01/24 09:33:21;;;;;;;40.38;18.17;;;;;;;3.17;100.00;102009.22;5077270;28;20052;-52
2022/01/24 09:35:53;;;;;;;32.95;17.45;;;;;;;3.22;100.00;102012.69;5077759;28;20064;-52
2022/01/24 09:38:23;;;;;;;29.65;16.60;;;;;;;3.69;100.00;102007.91;5077383;28;20139;-52
2022/01/24 09:40:52;;;;;;;30.80;15.85;;;;;;;4.00;100.00;102012.84;5077100;28;20062;-53
2022/01/24 09:43:21;;;;;;;40.20;16.42;;;;;;;4.93;100.00;102012.56;5077318;28;20056;-53
2022/01/24 09:45:50;;;;;;;30.23;15.68;;;;;;;5.82;100.00;102016.38;5078139;28;20060;-53
2022/01/24 09:48:18;;;;;;;39.35;14.68;;;;;;;7.49;91.23;102026.00;5076880;28;20056;-53
2022/01/24 09:50:50;;;;;;;29.83;14.45;;;;;;;8.85;72.17;102026.66;5076879;28;20059;-54
2022/01/24 09:53:19;;;;;;;33.80;15.10;;;;;;;9.82;64.23;102020.00;5076510;28;20057;-54
2022/01/24 09:55:47;;;;;;;25.65;14.88;;;;;;;10.98;60.37;102019.25;5076908;28;20067;-54
2022/01/24 09:58:16;;;;;;;30.30;14.93;;;;;;;10.87;55.05;102022.31;5076965;28;20068;-54
2022/01/24 10:00:46;;;;;;;28.92;14.18;;;;;;;11.34;55.25;102026.63;5077440;28;20065;-54
2022/01/24 10:03:15;;;;;;;30.48;15.80;;;;;;;11.34;55.25;102026.63;5076714;28;20053;-54
2022/01/24 10:06:03;;;;;;;27.33;15.15;;;;;;;13.28;48.46;102027.69;5076892;28;20099;-54
2022/01/24 10:08:32;;;;;;;29.52;15.32;;;;;;;13.60;47.35;102015.47;5077425;28;20065;-54
2022/01/24 10:11:03;;;;;;;24.33;13.50;;;;;;;14.12;45.85;102031.44;5077333;28;20057;-55
2022/01/24 10:16:29;;;;;;;25.95;14.18;;;;;;;13.77;100.00;102025.28;5076478;28;20053;-55
2022/01/24 10:19:13;;;;;;;27.85;15.82;;;;;;;13.50;45.62;97569.03;5076973;28;20053;-55
2022/01/24 10:22:01;;;;;;;26.77;14.02;;;;;;;14.35;44.58;102018.66;5077534;28;20399;-55
2022/01/24 10:24:33;;;;;;;25.90;14.75;;;;;;;14.23;44.20;102012.16;5076711;28;20084;-55
2022/01/24 10:27:09;;;;;;;33.60;16.38;;;;;;;15.24;41.31;102010.16;5076891;28;20053;-55
2022/01/24 10:29:42;;;;;;;31.80;15.50;;;;;;;15.83;39.76;102009.41;5077319;28;20056;-56
2022/01/24 10:32:27;;;;;;;29.38;16.35;;;;;;;15.35;40.73;102009.56;5076990;28;20083;-55
2022/01/24 10:34:56;;;;;;;27.98;14.95;;;;;;;16.92;37.46;102002.59;5075763;28;20057;-55
2022/01/24 10:37:25;;;;;;;26.77;15.35;;;;;;;-145.00;100.00;60578.66;5076041;28;20057;-55
2022/01/24 10:39:57;;;;;;;23.48;13.75;;;;;;;17.98;37.46;102002.59;5076007;28;20062;-55
2022/01/24 10:45:20;;;;;;;25.60;13.93;;;;;;;19.46;33.17;102018.81;5071165;28;20057;-55
2022/01/24 10:47:55;;;;;;;24.75;14.95;;;;;;;18.94;32.88;102008.31;5077065;28;20068;-55
2022/01/24 10:50:25;;;;;;;23.73;13.00;;;;;;;19.36;32.54;102017.81;5076460;28;20061;-55
2022/01/24 10:52:54;;;;;;;21.20;13.90;;;;;;;18.82;33.49;102009.19;5076433;28;20053;-55
2022/01/24 10:55:24;;;;;;;22.38;13.43;;;;;;;18.82;33.49;102009.19;5075881;28;20500;-55
2022/01/24 10:57:58;;;;;;;23.00;14.00;;;;;;;19.91;31.80;102005.53;5076696;28;20122;-55
2022/01/24 11:00:28;;;;;;;24.50;15.32;;;;;;;18.62;32.48;102001.72;5076127;28;20060;-55
2022/01/24 11:03:00;;;;;;;24.45;14.63;;;;;;;19.08;32.48;101995.66;5076190;28;20075;-55
2022/01/24 11:05:30;;;;;;;28.02;14.70;;;;;;;20.66;30.16;101998.72;5076668;28;20059;-55
2022/01/24 11:08:00;;;;;;;24.00;14.18;;;;;;;18.14;33.66;101997.06;5076131;28;20053;-55
2022/01/24 11:10:29;;;;;;;24.88;14.27;;;;;;;16.74;35.62;101999.25;5075444;28;20082;-55
2022/01/24 11:12:57;;;;;;;24.67;15.10;;;;;;;15.11;39.04;101996.63;5076423;28;20060;-55
2022/01/24 11:15:26;;;;;;;26.58;14.88;;;;;;;15.75;37.96;101999.13;5075398;28;20057;-55
2022/01/24 11:17:55;;;;;;;23.70;15.18;;;;;;;16.46;36.19;101998.34;5075622;28;20395;-55
2022/01/24 11:20:30;;;;;;;25.55;15.98;;;;;;;15.01;39.20;101998.13;5074622;28;20075;-55
2022/01/24 11:23:01;;;;;;;23.10;14.23;;;;;;;17.01;36.12;102002.00;5074918;28;20061;-55
2022/01/24 11:25:31;;;;;;;24.83;13.93;;;;;;;18.28;34.24;101999.63;5076102;28;20057;-55
2022/01/24 11:27:59;;;;;;;24.00;14.90;;;;;;;19.40;32.41;101992.38;5075904;28;20083;-55
2022/01/24 11:30:30;;;;;;;25.90;14.63;;;;;;;19.40;32.41;101992.38;5075279;28;20053;-55
2022/01/24 11:33:04;;;;;;;21.60;14.07;;;;;;;21.46;28.75;101992.03;5075763;28;20053;-55
2022/01/24 11:35:38;;;;;;;25.58;16.10;;;;;;;21.12;28.12;101989.50;5074585;28;20512;-55
2022/01/24 11:38:26;;;;;;;23.02;14.80;;;;;;;21.79;27.21;101990.16;5074671;28;20603;-55
2022/01/24 11:40:59;;;;;;;26.05;15.32;;;;;;;21.83;27.91;101990.75;5076011;28;20052;-55
2022/01/24 11:43:34;;;;;;;26.88;15.73;;;;;;;20.84;28.54;101990.06;5074713;28;20143;-55
2022/01/24 11:46:07;;;;;;;26.05;15.75;;;;;;;19.77;29.01;101994.97;5075582;28;20056;-55
2022/01/24 11:48:38;;;;;;;28.45;16.15;;;;;;;18.97;31.01;101982.19;5075836;28;20122;-55
2022/01/24 11:51:11;;;;;;;25.67;16.02;;;;;;;18.90;31.38;101988.00;5075208;28;20492;-55
2022/01/24 11:53:43;;;;;;;23.23;15.00;;;;;;;20.78;29.05;101989.59;5074304;28;20052;-55
2022/01/24 11:56:23;;;;;;;29.05;16.52;;;;;;;21.11;28.60;101982.38;5074319;28;20061;-55
2022/01/24 11:58:53;;;;;;;27.77;16.33;;;;;;;21.70;27.41;101982.84;5074926;28;20071;-55
2022/01/24 12:01:35;;;;;;;26.25;15.00;;;;;;;20.36;28.64;101992.09;5074753;28;20053;-55
2022/01/24 12:04:03;;;;;;;25.63;15.55;;;;;;;19.61;29.81;101979.13;5074350;28;20048;-55
2022/01/24 12:07:12;;;;;;;27.50;15.43;;;;;;;20.24;29.39;101982.28;5075325;28;20056;-55
2022/01/24 12:09:40;;;;;;;20.75;14.38;;;;;;;21.15;28.19;101983.00;5074182;28;20439;-55
2022/01/24 12:12:41;;;;;;;28.15;15.60;;;;;;;21.91;26.95;101990.09;5074325;28;20573;-55
2022/01/24 12:15:11;;;;;;;28.10;15.27;;;;;;;23.70;25.39;101985.63;5074048;28;20063;-55
2022/01/24 12:17:47;;;;;;;24.70;15.82;;;;;;;23.14;25.06;101985.38;5074282;28;20067;-55
2022/01/24 12:20:46;;;;;;;23.52;14.52;;;;;;;22.31;26.06;101971.25;5074385;28;20063;-55
2022/01/24 12:23:43;;;;;;;24.38;16.08;;;;;;;22.25;26.20;101974.47;5074400;28;20102;-55
2022/01/24 12:26:34;;;;;;;27.48;15.85;;;;;;;21.87;26.61;101960.66;5056326;28;20400;-55